sensor_id;sensor_type;location;lat;lon;timestamp;temperature;humidity
25991;DHT22;13779;-33.886;151.198;2022-12-26T00:00:08;24.70;99.90
25991;DHT22;13779;-33.886;151.198;2022-12-26T00:02:40;24.80;99.90
25991;DHT22;13779;-33.886;151.198;2022-12-26T00:05:11;24.80;99.90
25991;DHT22;13779;-33.886;151.198;2022-12-26T00:07:45;24.70;99.90
25991;DHT22;13779;-33.886;151.198;2022-12-26T00:10:15;24.70;99.90
25991;DHT22;13779;-33.886;151.198;2022-12-26T00:12:45;24.80;99.90
25991;DHT22;13779;-33.886;151.198;2022-12-26T00:15:15;24.80;99.90
25991;DHT22;13779;-33.886;151.198;2022-12-26T00:17:45;24.90;99.90
25991;DHT22;13779;-33.886;151.198;2022-12-26T00:20:16;24.90;99.90
25991;DHT22;13779;-33.886;151.198;2022-12-26T00:22:46;24.90;99.90
25991;DHT22;13779;-33.886;151.198;2022-12-26T00:25:16;24.90;99.90
25991;DHT22;13779;-33.886;151.198;2022-12-26T00:27:46;25.00;99.90
25991;DHT22;13779;-33.886;151.198;2022-12-26T00:30:17;25.00;99.90
25991;DHT22;13779;-33.886;151.198;2022-12-26T00:32:48;25.10;99.90
25991;DHT22;13779;-33.886;151.198;2022-12-26T00:35:18;25.00;99.90
25991;DHT22;13779;-33.886;151.198;2022-12-26T00:37:49;25.10;99.90
25991;DHT22;13779;-33.886;151.198;2022-12-26T00:40:20;25.00;99.90
25991;DHT22;13779;-33.886;151.198;2022-12-26T00:42:51;25.00;99.90
25991;DHT22;13779;-33.886;151.198;2022-12-26T00:45:21;25.00;99.90
25991;DHT22;13779;-33.886;151.198;2022-12-26T00:47:51;25.10;99.90
25991;DHT22;13779;-33.886;151.198;2022-12-26T00:50:23;25.10;99.90
25991;DHT22;13779;-33.886;151.198;2022-12-26T00:53:00;25.10;99.90
25991;DHT22;13779;-33.886;151.198;2022-12-26T00:55:30;25.10;99.90
25991;DHT22;13779;-33.886;151.198;2022-12-26T00:58:01;25.10;99.90
25991;DHT22;13779;-33.886;151.198;2022-12-26T01:00:32;25.20;99.90
25991;DHT22;13779;-33.886;151.198;2022-12-26T01:03:01;25.20;99.90
25991;DHT22;13779;-33.886;151.198;2022-12-26T01:05:32;25.30;99.90
25991;DHT22;13779;-33.886;151.198;2022-12-26T01:08:02;25.20;99.90
25991;DHT22;13779;-33.886;151.198;2022-12-26T01:10:48;25.30;99.90
25991;DHT22;13779;-33.886;151.198;2022-12-26T01:13:19;25.30;99.90
25991;DHT22;13779;-33.886;151.198;2022-12-26T01:15:52;25.40;99.90
25991;DHT22;13779;-33.886;151.198;2022-12-26T01:18:23;25.30;99.90
25991;DHT22;13779;-33.886;151.198;2022-12-26T01:21:01;25.40;99.90
25991;DHT22;13779;-33.886;151.198;2022-12-26T01:23:32;25.40;99.90
25991;DHT22;13779;-33.886;151.198;2022-12-26T01:26:04;25.40;99.90
25991;DHT22;13779;-33.886;151.198;2022-12-26T01:28:42;25.40;99.90
25991;DHT22;13779;-33.886;151.198;2022-12-26T01:31:13;25.40;99.90
25991;DHT22;13779;-33.886;151.198;2022-12-26T01:33:43;25.40;99.90
25991;DHT22;13779;-33.886;151.198;2022-12-26T01:36:15;25.40;99.90
25991;DHT22;13779;-33.886;151.198;2022-12-26T01:38:46;25.50;99.90
25991;DHT22;13779;-33.886;151.198;2022-12-26T01:41:21;25.50;99.90
25991;DHT22;13779;-33.886;151.198;2022-12-26T01:44:04;25.50;99.90
25991;DHT22;13779;-33.886;151.198;2022-12-26T01:46:44;25.50;99.90
25991;DHT22;13779;-33.886;151.198;2022-12-26T01:49:35;25.50;99.90
25991;DHT22;13779;-33.886;151.198;2022-12-26T01:52:11;25.50;99.90
25991;DHT22;13779;-33.886;151.198;2022-12-26T01:54:44;25.50;99.90
25991;DHT22;13779;-33.886;151.198;2022-12-26T01:57:28;25.60;99.90
25991;DHT22;13779;-33.886;151.198;2022-12-26T02:00:01;25.60;99.90
25991;DHT22;13779;-33.886;151.198;2022-12-26T02:02:32;25.60;99.90
25991;DHT22;13779;-33.886;151.198;2022-12-26T02:05:26;25.60;99.90
25991;DHT22;13779;-33.886;151.198;2022-12-26T02:08:07;25.60;99.90
25991;DHT22;13779;-33.886;151.198;2022-12-26T02:10:55;25.60;99.90
25991;DHT22;13779;-33.886;151.198;2022-12-26T02:13:27;25.50;99.90
25991;DHT22;13779;-33.886;151.198;2022-12-26T02:15:58;25.40;99.90
25991;DHT22;13779;-33.886;151.198;2022-12-26T02:18:28;25.40;99.90
25991;DHT22;13779;-33.886;151.198;2022-12-26T02:21:48;25.30;99.90
25991;DHT22;13779;-33.886;151.198;2022-12-26T02:36:04;25.40;99.90
25991;DHT22;13779;-33.886;151.198;2022-12-26T02:39:01;25.40;99.90
25991;DHT22;13779;-33.886;151.198;2022-12-26T02:42:14;25.30;99.90
25991;DHT22;13779;-33.886;151.198;2022-12-26T02:44:52;25.20;99.90
25991;DHT22;13779;-33.886;151.198;2022-12-26T02:47:56;25.20;99.90
25991;DHT22;13779;-33.886;151.198;2022-12-26T02:53:46;25.30;99.90
25991;DHT22;13779;-33.886;151.198;2022-12-26T02:56:50;25.30;99.90
25991;DHT22;13779;-33.886;151.198;2022-12-26T03:08:45;25.30;99.90
25991;DHT22;13779;-33.886;151.198;2022-12-26T03:11:40;25.20;99.90
25991;DHT22;13779;-33.886;151.198;2022-12-26T03:17:11;25.20;99.90
25991;DHT22;13779;-33.886;151.198;2022-12-26T03:19:54;25.20;99.90
25991;DHT22;13779;-33.886;151.198;2022-12-26T03:25:55;25.30;99.90
25991;DHT22;13779;-33.886;151.198;2022-12-26T03:28:44;25.40;99.90
25991;DHT22;13779;-33.886;151.198;2022-12-26T03:31:17;25.30;99.90
25991;DHT22;13779;-33.886;151.198;2022-12-26T03:33:48;25.40;99.90
25991;DHT22;13779;-33.886;151.198;2022-12-26T03:52:01;25.80;99.90
25991;DHT22;13779;-33.886;151.198;2022-12-26T04:00:54;25.60;99.90
25991;DHT22;13779;-33.886;151.198;2022-12-26T04:03:44;25.50;99.90
25991;DHT22;13779;-33.886;151.198;2022-12-26T04:06:44;25.50;99.90
25991;DHT22;13779;-33.886;151.198;2022-12-26T04:09:47;25.50;99.90
25991;DHT22;13779;-33.886;151.198;2022-12-26T04:12:38;25.50;99.90
25991;DHT22;13779;-33.886;151.198;2022-12-26T04:15:53;25.60;99.90
25991;DHT22;13779;-33.886;151.198;2022-12-26T04:19:01;25.60;99.90
25991;DHT22;13779;-33.886;151.198;2022-12-26T04:22:11;25.50;99.90
25991;DHT22;13779;-33.886;151.198;2022-12-26T04:28:16;25.60;99.90
25991;DHT22;13779;-33.886;151.198;2022-12-26T04:34:44;25.50;99.90
25991;DHT22;13779;-33.886;151.198;2022-12-26T04:37:35;25.50;99.90
25991;DHT22;13779;-33.886;151.198;2022-12-26T04:40:30;25.50;99.90
25991;DHT22;13779;-33.886;151.198;2022-12-26T04:43:21;25.60;99.90
25991;DHT22;13779;-33.886;151.198;2022-12-26T04:46:21;25.50;99.90
25991;DHT22;13779;-33.886;151.198;2022-12-26T04:48:53;25.50;99.90
25991;DHT22;13779;-33.886;151.198;2022-12-26T04:51:42;25.60;99.90
25991;DHT22;13779;-33.886;151.198;2022-12-26T04:54:13;25.50;99.90
25991;DHT22;13779;-33.886;151.198;2022-12-26T04:56:43;25.40;99.90
25991;DHT22;13779;-33.886;151.198;2022-12-26T04:59:14;25.40;99.90
25991;DHT22;13779;-33.886;151.198;2022-12-26T05:01:44;25.40;99.90
25991;DHT22;13779;-33.886;151.198;2022-12-26T05:04:33;25.40;99.90
25991;DHT22;13779;-33.886;151.198;2022-12-26T05:07:28;25.30;99.90
25991;DHT22;13779;-33.886;151.198;2022-12-26T05:10:25;25.40;99.90
25991;DHT22;13779;-33.886;151.198;2022-12-26T05:12:56;25.40;99.90
25991;DHT22;13779;-33.886;151.198;2022-12-26T05:15:27;25.50;99.90
25991;DHT22;13779;-33.886;151.198;2022-12-26T05:18:17;25.50;99.90
25991;DHT22;13779;-33.886;151.198;2022-12-26T05:21:10;25.50;99.90
25991;DHT22;13779;-33.886;151.198;2022-12-26T05:24:00;25.50;99.90
25991;DHT22;13779;-33.886;151.198;2022-12-26T05:26:48;25.50;99.90
25991;DHT22;13779;-33.886;151.198;2022-12-26T05:29:37;25.60;99.90
25991;DHT22;13779;-33.886;151.198;2022-12-26T05:32:07;25.60;99.90
25991;DHT22;13779;-33.886;151.198;2022-12-26T05:34:38;25.70;99.90
25991;DHT22;13779;-33.886;151.198;2022-12-26T05:37:08;25.70;99.90
25991;DHT22;13779;-33.886;151.198;2022-12-26T05:39:39;25.70;99.90
25991;DHT22;13779;-33.886;151.198;2022-12-26T05:42:09;25.70;99.90
25991;DHT22;13779;-33.886;151.198;2022-12-26T05:44:40;25.70;99.90
25991;DHT22;13779;-33.886;151.198;2022-12-26T05:47:10;25.70;99.90
25991;DHT22;13779;-33.886;151.198;2022-12-26T05:49:41;25.60;99.90
25991;DHT22;13779;-33.886;151.198;2022-12-26T05:52:11;25.50;99.90
25991;DHT22;13779;-33.886;151.198;2022-12-26T05:54:43;25.50;99.90
25991;DHT22;13779;-33.886;151.198;2022-12-26T05:57:13;25.50;99.90
25991;DHT22;13779;-33.886;151.198;2022-12-26T05:59:44;25.50;99.90
25991;DHT22;13779;-33.886;151.198;2022-12-26T06:02:14;25.60;99.90
25991;DHT22;13779;-33.886;151.198;2022-12-26T06:04:45;25.60;99.90
25991;DHT22;13779;-33.886;151.198;2022-12-26T06:07:15;25.60;99.90
25991;DHT22;13779;-33.886;151.198;2022-12-26T06:09:46;25.50;99.90
25991;DHT22;13779;-33.886;151.198;2022-12-26T06:12:16;25.40;99.90
25991;DHT22;13779;-33.886;151.198;2022-12-26T06:14:47;25.40;99.90
25991;DHT22;13779;-33.886;151.198;2022-12-26T06:17:18;25.30;99.90
25991;DHT22;13779;-33.886;151.198;2022-12-26T06:19:49;25.20;99.90
25991;DHT22;13779;-33.886;151.198;2022-12-26T06:22:20;25.20;99.90
25991;DHT22;13779;-33.886;151.198;2022-12-26T06:24:51;25.20;99.90
25991;DHT22;13779;-33.886;151.198;2022-12-26T06:27:21;25.20;99.90
25991;DHT22;13779;-33.886;151.198;2022-12-26T06:29:51;25.20;99.90
25991;DHT22;13779;-33.886;151.198;2022-12-26T06:32:21;25.20;99.90
25991;DHT22;13779;-33.886;151.198;2022-12-26T06:34:51;25.20;99.90
25991;DHT22;13779;-33.886;151.198;2022-12-26T06:37:21;25.10;99.90
25991;DHT22;13779;-33.886;151.198;2022-12-26T06:39:52;25.00;99.90
25991;DHT22;13779;-33.886;151.198;2022-12-26T06:42:22;25.10;99.90
25991;DHT22;13779;-33.886;151.198;2022-12-26T06:44:52;25.20;99.90
25991;DHT22;13779;-33.886;151.198;2022-12-26T06:47:22;25.10;99.90
25991;DHT22;13779;-33.886;151.198;2022-12-26T06:49:52;25.20;99.90
25991;DHT22;13779;-33.886;151.198;2022-12-26T06:52:22;25.20;99.90
25991;DHT22;13779;-33.886;151.198;2022-12-26T06:54:52;25.20;99.90
25991;DHT22;13779;-33.886;151.198;2022-12-26T06:57:22;25.20;99.90
25991;DHT22;13779;-33.886;151.198;2022-12-26T06:59:53;25.10;99.90
25991;DHT22;13779;-33.886;151.198;2022-12-26T07:02:23;25.10;99.90
25991;DHT22;13779;-33.886;151.198;2022-12-26T07:04:53;25.10;99.90
25991;DHT22;13779;-33.886;151.198;2022-12-26T07:07:23;25.10;99.90
25991;DHT22;13779;-33.886;151.198;2022-12-26T07:09:53;25.10;99.90
25991;DHT22;13779;-33.886;151.198;2022-12-26T07:12:23;25.10;99.90
25991;DHT22;13779;-33.886;151.198;2022-12-26T07:14:53;25.00;99.90
25991;DHT22;13779;-33.886;151.198;2022-12-26T07:17:28;25.00;99.90
25991;DHT22;13779;-33.886;151.198;2022-12-26T07:19:58;25.00;99.90
25991;DHT22;13779;-33.886;151.198;2022-12-26T07:22:28;25.00;99.90
25991;DHT22;13779;-33.886;151.198;2022-12-26T07:24:58;24.90;99.90
25991;DHT22;13779;-33.886;151.198;2022-12-26T07:27:29;24.90;99.90
25991;DHT22;13779;-33.886;151.198;2022-12-26T07:29:59;24.90;99.90
25991;DHT22;13779;-33.886;151.198;2022-12-26T07:32:30;24.90;99.90
25991;DHT22;13779;-33.886;151.198;2022-12-26T07:35:00;24.90;99.90
25991;DHT22;13779;-33.886;151.198;2022-12-26T07:37:31;24.90;99.90
25991;DHT22;13779;-33.886;151.198;2022-12-26T07:40:02;24.80;99.90
25991;DHT22;13779;-33.886;151.198;2022-12-26T07:42:32;24.80;99.90
25991;DHT22;13779;-33.886;151.198;2022-12-26T07:45:02;24.80;99.90
25991;DHT22;13779;-33.886;151.198;2022-12-26T07:47:33;24.80;99.90
25991;DHT22;13779;-33.886;151.198;2022-12-26T07:50:04;24.80;99.90
25991;DHT22;13779;-33.886;151.198;2022-12-26T07:52:35;24.70;99.90
25991;DHT22;13779;-33.886;151.198;2022-12-26T07:55:06;24.70;99.90
25991;DHT22;13779;-33.886;151.198;2022-12-26T07:57:36;24.70;99.90
25991;DHT22;13779;-33.886;151.198;2022-12-26T08:00:17;24.70;99.90
25991;DHT22;13779;-33.886;151.198;2022-12-26T08:02:49;24.70;99.90
25991;DHT22;13779;-33.886;151.198;2022-12-26T08:05:20;24.60;99.90
25991;DHT22;13779;-33.886;151.198;2022-12-26T08:07:51;24.60;99.90
25991;DHT22;13779;-33.886;151.198;2022-12-26T08:10:21;24.50;99.90
25991;DHT22;13779;-33.886;151.198;2022-12-26T08:12:52;24.50;99.90
25991;DHT22;13779;-33.886;151.198;2022-12-26T08:15:22;24.50;99.90
25991;DHT22;13779;-33.886;151.198;2022-12-26T08:17:53;24.50;99.90
25991;DHT22;13779;-33.886;151.198;2022-12-26T08:20:26;24.40;99.90
25991;DHT22;13779;-33.886;151.198;2022-12-26T08:22:57;24.40;99.90
25991;DHT22;13779;-33.886;151.198;2022-12-26T08:25:28;24.40;99.90
25991;DHT22;13779;-33.886;151.198;2022-12-26T08:27:58;24.40;99.90
25991;DHT22;13779;-33.886;151.198;2022-12-26T08:30:29;24.40;99.90
25991;DHT22;13779;-33.886;151.198;2022-12-26T08:32:59;24.30;99.90
25991;DHT22;13779;-33.886;151.198;2022-12-26T08:35:30;24.30;99.90
25991;DHT22;13779;-33.886;151.198;2022-12-26T08:38:01;24.30;99.90
25991;DHT22;13779;-33.886;151.198;2022-12-26T08:40:31;24.20;99.90
25991;DHT22;13779;-33.886;151.198;2022-12-26T08:43:10;24.10;99.90
25991;DHT22;13779;-33.886;151.198;2022-12-26T08:46:08;24.10;99.90
25991;DHT22;13779;-33.886;151.198;2022-12-26T08:48:41;24.00;99.90
25991;DHT22;13779;-33.886;151.198;2022-12-26T08:51:20;24.00;99.90
25991;DHT22;13779;-33.886;151.198;2022-12-26T08:53:53;23.90;99.90
25991;DHT22;13779;-33.886;151.198;2022-12-26T08:56:24;23.90;99.90
25991;DHT22;13779;-33.886;151.198;2022-12-26T08:58:55;23.80;99.90
25991;DHT22;13779;-33.886;151.198;2022-12-26T09:01:35;23.80;99.90
25991;DHT22;13779;-33.886;151.198;2022-12-26T09:04:06;23.80;99.90
25991;DHT22;13779;-33.886;151.198;2022-12-26T09:06:37;23.80;99.90
25991;DHT22;13779;-33.886;151.198;2022-12-26T09:09:08;23.80;99.90
25991;DHT22;13779;-33.886;151.198;2022-12-26T09:11:40;23.70;99.90
25991;DHT22;13779;-33.886;151.198;2022-12-26T09:14:11;23.70;99.90
25991;DHT22;13779;-33.886;151.198;2022-12-26T09:16:43;23.70;99.90
25991;DHT22;13779;-33.886;151.198;2022-12-26T09:19:18;23.60;99.90
25991;DHT22;13779;-33.886;151.198;2022-12-26T09:21:50;23.60;99.90
25991;DHT22;13779;-33.886;151.198;2022-12-26T09:24:43;23.60;99.90
25991;DHT22;13779;-33.886;151.198;2022-12-26T09:27:19;23.60;99.90
25991;DHT22;13779;-33.886;151.198;2022-12-26T09:29:55;23.60;99.90
25991;DHT22;13779;-33.886;151.198;2022-12-26T09:32:25;23.50;99.90
25991;DHT22;13779;-33.886;151.198;2022-12-26T09:34:56;23.50;99.90
25991;DHT22;13779;-33.886;151.198;2022-12-26T09:37:27;23.50;99.90
25991;DHT22;13779;-33.886;151.198;2022-12-26T09:39:57;23.50;99.90
25991;DHT22;13779;-33.886;151.198;2022-12-26T09:45:27;23.50;99.90
25991;DHT22;13779;-33.886;151.198;2022-12-26T09:48:38;23.50;99.90
25991;DHT22;13779;-33.886;151.198;2022-12-26T09:51:08;23.50;99.90
25991;DHT22;13779;-33.886;151.198;2022-12-26T09:53:41;23.50;99.90
25991;DHT22;13779;-33.886;151.198;2022-12-26T09:56:16;23.40;99.90
25991;DHT22;13779;-33.886;151.198;2022-12-26T09:59:15;23.40;99.90
25991;DHT22;13779;-33.886;151.198;2022-12-26T10:01:47;23.40;99.90
25991;DHT22;13779;-33.886;151.198;2022-12-26T10:04:24;23.40;99.90
25991;DHT22;13779;-33.886;151.198;2022-12-26T10:10:11;23.40;99.90
25991;DHT22;13779;-33.886;151.198;2022-12-26T10:15:57;23.30;99.90
25991;DHT22;13779;-33.886;151.198;2022-12-26T10:24:34;23.30;99.90
25991;DHT22;13779;-33.886;151.198;2022-12-26T10:27:17;23.30;99.90
25991;DHT22;13779;-33.886;151.198;2022-12-26T10:32:42;23.20;99.90
25991;DHT22;13779;-33.886;151.198;2022-12-26T10:38:01;23.20;99.90
25991;DHT22;13779;-33.886;151.198;2022-12-26T10:40:38;23.20;99.90
25991;DHT22;13779;-33.886;151.198;2022-12-26T10:43:32;23.10;99.90
25991;DHT22;13779;-33.886;151.198;2022-12-26T10:46:29;23.10;99.90
25991;DHT22;13779;-33.886;151.198;2022-12-26T10:49:03;23.10;99.90
25991;DHT22;13779;-33.886;151.198;2022-12-26T10:51:33;23.10;99.90
25991;DHT22;13779;-33.886;151.198;2022-12-26T10:54:15;23.00;99.90
25991;DHT22;13779;-33.886;151.198;2022-12-26T10:56:50;23.10;99.90
25991;DHT22;13779;-33.886;151.198;2022-12-26T10:59:25;23.10;99.90
25991;DHT22;13779;-33.886;151.198;2022-12-26T11:02:12;23.00;99.90
25991;DHT22;13779;-33.886;151.198;2022-12-26T11:04:58;23.00;99.90
25991;DHT22;13779;-33.886;151.198;2022-12-26T11:07:54;23.00;99.90
25991;DHT22;13779;-33.886;151.198;2022-12-26T11:10:27;23.00;99.90
25991;DHT22;13779;-33.886;151.198;2022-12-26T11:13:07;23.00;99.90
25991;DHT22;13779;-33.886;151.198;2022-12-26T11:15:51;23.00;99.90
25991;DHT22;13779;-33.886;151.198;2022-12-26T11:18:37;22.90;99.90
25991;DHT22;13779;-33.886;151.198;2022-12-26T11:21:28;22.90;99.90
25991;DHT22;13779;-33.886;151.198;2022-12-26T11:26:38;22.90;99.90
25991;DHT22;13779;-33.886;151.198;2022-12-26T11:29:20;22.90;99.90
25991;DHT22;13779;-33.886;151.198;2022-12-26T11:32:02;22.90;99.90
25991;DHT22;13779;-33.886;151.198;2022-12-26T11:34:39;22.90;99.90
25991;DHT22;13779;-33.886;151.198;2022-12-26T11:37:30;22.90;99.90
25991;DHT22;13779;-33.886;151.198;2022-12-26T11:40:02;22.90;99.90
25991;DHT22;13779;-33.886;151.198;2022-12-26T11:42:33;22.90;99.90
25991;DHT22;13779;-33.886;151.198;2022-12-26T11:45:10;22.90;99.90
25991;DHT22;13779;-33.886;151.198;2022-12-26T11:47:44;22.80;99.90
25991;DHT22;13779;-33.886;151.198;2022-12-26T11:50:15;22.80;99.90
25991;DHT22;13779;-33.886;151.198;2022-12-26T11:53:04;22.80;99.90
25991;DHT22;13779;-33.886;151.198;2022-12-26T11:55:36;22.80;99.90
25991;DHT22;13779;-33.886;151.198;2022-12-26T11:58:14;22.80;99.90
25991;DHT22;13779;-33.886;151.198;2022-12-26T12:03:39;22.80;99.90
25991;DHT22;13779;-33.886;151.198;2022-12-26T12:06:57;22.80;99.90
25991;DHT22;13779;-33.886;151.198;2022-12-26T12:18:47;22.70;99.90
25991;DHT22;13779;-33.886;151.198;2022-12-26T12:41:05;22.70;99.90
25991;DHT22;13779;-33.886;151.198;2022-12-26T12:44:10;22.70;99.90
25991;DHT22;13779;-33.886;151.198;2022-12-26T12:46:57;22.70;99.90
25991;DHT22;13779;-33.886;151.198;2022-12-26T13:00:57;22.70;99.90
25991;DHT22;13779;-33.886;151.198;2022-12-26T13:06:15;22.60;99.90
25991;DHT22;13779;-33.886;151.198;2022-12-26T13:08:57;22.60;99.90
25991;DHT22;13779;-33.886;151.198;2022-12-26T13:11:37;22.60;99.90
25991;DHT22;13779;-33.886;151.198;2022-12-26T13:14:42;22.60;99.90
25991;DHT22;13779;-33.886;151.198;2022-12-26T13:17:24;22.60;99.90
25991;DHT22;13779;-33.886;151.198;2022-12-26T13:20:14;22.60;99.90
25991;DHT22;13779;-33.886;151.198;2022-12-26T13:22:50;22.60;99.90
25991;DHT22;13779;-33.886;151.198;2022-12-26T13:25:47;22.70;99.90
25991;DHT22;13779;-33.886;151.198;2022-12-26T13:28:27;22.60;99.90
25991;DHT22;13779;-33.886;151.198;2022-12-26T13:30:58;22.60;99.90
25991;DHT22;13779;-33.886;151.198;2022-12-26T13:33:28;22.60;99.90
25991;DHT22;13779;-33.886;151.198;2022-12-26T13:36:01;22.60;99.90
25991;DHT22;13779;-33.886;151.198;2022-12-26T13:41:35;22.50;99.90
25991;DHT22;13779;-33.886;151.198;2022-12-26T13:44:26;22.60;99.90
25991;DHT22;13779;-33.886;151.198;2022-12-26T13:46:57;22.60;99.90
25991;DHT22;13779;-33.886;151.198;2022-12-26T14:00:03;22.50;99.90
25991;DHT22;13779;-33.886;151.198;2022-12-26T14:20:34;22.50;99.90
25991;DHT22;13779;-33.886;151.198;2022-12-26T14:28:56;22.40;99.90
25991;DHT22;13779;-33.886;151.198;2022-12-26T14:45:47;22.30;99.90
25991;DHT22;13779;-33.886;151.198;2022-12-26T14:50:52;22.30;99.90
25991;DHT22;13779;-33.886;151.198;2022-12-26T14:53:33;22.30;99.90
25991;DHT22;13779;-33.886;151.198;2022-12-26T15:01:48;22.30;99.90
25991;DHT22;13779;-33.886;151.198;2022-12-26T15:16:27;22.30;99.90
25991;DHT22;13779;-33.886;151.198;2022-12-26T15:19:20;22.30;99.90
25991;DHT22;13779;-33.886;151.198;2022-12-26T15:33:28;22.30;99.90
25991;DHT22;13779;-33.886;151.198;2022-12-26T15:39:03;22.20;99.90
25991;DHT22;13779;-33.886;151.198;2022-12-26T15:41:47;22.20;99.90
25991;DHT22;13779;-33.886;151.198;2022-12-26T15:44:26;22.20;99.90
25991;DHT22;13779;-33.886;151.198;2022-12-26T15:47:09;22.10;99.90
25991;DHT22;13779;-33.886;151.198;2022-12-26T15:52:42;22.20;99.90
25991;DHT22;13779;-33.886;151.198;2022-12-26T15:55:24;22.20;99.90
25991;DHT22;13779;-33.886;151.198;2022-12-26T15:58:04;22.20;99.90
25991;DHT22;13779;-33.886;151.198;2022-12-26T16:00:39;22.20;99.90
25991;DHT22;13779;-33.886;151.198;2022-12-26T16:03:21;22.20;99.90
25991;DHT22;13779;-33.886;151.198;2022-12-26T16:11:28;22.10;99.90
25991;DHT22;13779;-33.886;151.198;2022-12-26T16:14:02;22.10;99.90
25991;DHT22;13779;-33.886;151.198;2022-12-26T16:16:35;22.10;99.90
25991;DHT22;13779;-33.886;151.198;2022-12-26T16:19:26;22.10;99.90
25991;DHT22;13779;-33.886;151.198;2022-12-26T16:22:02;22.00;99.90
25991;DHT22;13779;-33.886;151.198;2022-12-26T16:24:52;22.10;99.90
25991;DHT22;13779;-33.886;151.198;2022-12-26T16:27:23;22.10;99.90
25991;DHT22;13779;-33.886;151.198;2022-12-26T16:29:55;22.10;99.90
25991;DHT22;13779;-33.886;151.198;2022-12-26T16:32:35;22.10;99.90
25991;DHT22;13779;-33.886;151.198;2022-12-26T16:35:18;22.10;99.90
25991;DHT22;13779;-33.886;151.198;2022-12-26T16:37:49;22.10;99.90
25991;DHT22;13779;-33.886;151.198;2022-12-26T16:43:27;22.10;99.90
25991;DHT22;13779;-33.886;151.198;2022-12-26T16:45:59;22.10;99.90
25991;DHT22;13779;-33.886;151.198;2022-12-26T16:48:32;22.00;99.90
25991;DHT22;13779;-33.886;151.198;2022-12-26T16:51:07;22.00;99.90
25991;DHT22;13779;-33.886;151.198;2022-12-26T16:54:20;22.00;99.90
25991;DHT22;13779;-33.886;151.198;2022-12-26T16:57:19;22.00;99.90
25991;DHT22;13779;-33.886;151.198;2022-12-26T16:59:57;22.00;99.90
25991;DHT22;13779;-33.886;151.198;2022-12-26T17:02:33;22.00;99.90
25991;DHT22;13779;-33.886;151.198;2022-12-26T17:05:36;22.10;99.90
25991;DHT22;13779;-33.886;151.198;2022-12-26T17:08:13;22.10;99.90
25991;DHT22;13779;-33.886;151.198;2022-12-26T17:10:48;22.10;99.90
25991;DHT22;13779;-33.886;151.198;2022-12-26T17:13:25;22.20;99.90
25991;DHT22;13779;-33.886;151.198;2022-12-26T17:15:57;22.20;99.90
25991;DHT22;13779;-33.886;151.198;2022-12-26T17:26:31;22.10;99.90
25991;DHT22;13779;-33.886;151.198;2022-12-26T17:29:01;22.00;99.90
25991;DHT22;13779;-33.886;151.198;2022-12-26T17:31:37;22.00;99.90
25991;DHT22;13779;-33.886;151.198;2022-12-26T17:34:14;21.90;99.90
25991;DHT22;13779;-33.886;151.198;2022-12-26T17:36:44;21.80;99.90
25991;DHT22;13779;-33.886;151.198;2022-12-26T17:39:35;21.80;99.90
25991;DHT22;13779;-33.886;151.198;2022-12-26T17:42:06;21.80;99.90
25991;DHT22;13779;-33.886;151.198;2022-12-26T17:44:42;21.70;99.90
25991;DHT22;13779;-33.886;151.198;2022-12-26T17:47:25;21.70;99.90
25991;DHT22;13779;-33.886;151.198;2022-12-26T17:49:57;21.70;99.90
25991;DHT22;13779;-33.886;151.198;2022-12-26T17:52:28;21.60;99.90
25991;DHT22;13779;-33.886;151.198;2022-12-26T17:55:01;21.60;99.90
25991;DHT22;13779;-33.886;151.198;2022-12-26T17:57:32;21.60;99.90
25991;DHT22;13779;-33.886;151.198;2022-12-26T18:00:13;21.60;99.90
25991;DHT22;13779;-33.886;151.198;2022-12-26T18:02:44;21.60;99.90
25991;DHT22;13779;-33.886;151.198;2022-12-26T18:05:15;21.50;99.90
25991;DHT22;13779;-33.886;151.198;2022-12-26T18:07:48;21.50;99.90
25991;DHT22;13779;-33.886;151.198;2022-12-26T18:10:23;21.40;99.90
25991;DHT22;13779;-33.886;151.198;2022-12-26T18:12:54;21.40;99.90
25991;DHT22;13779;-33.886;151.198;2022-12-26T18:15:29;21.40;99.90
25991;DHT22;13779;-33.886;151.198;2022-12-26T18:18:00;21.30;99.90
25991;DHT22;13779;-33.886;151.198;2022-12-26T18:20:30;21.30;99.90
25991;DHT22;13779;-33.886;151.198;2022-12-26T18:23:01;21.30;99.90
25991;DHT22;13779;-33.886;151.198;2022-12-26T18:25:31;21.30;99.90
25991;DHT22;13779;-33.886;151.198;2022-12-26T18:28:02;21.30;99.90
25991;DHT22;13779;-33.886;151.198;2022-12-26T18:30:32;21.30;99.90
25991;DHT22;13779;-33.886;151.198;2022-12-26T18:33:03;21.20;99.90
25991;DHT22;13779;-33.886;151.198;2022-12-26T18:35:34;21.30;99.90
25991;DHT22;13779;-33.886;151.198;2022-12-26T18:38:04;21.30;99.90
25991;DHT22;13779;-33.886;151.198;2022-12-26T18:40:43;21.20;99.90
25991;DHT22;13779;-33.886;151.198;2022-12-26T18:43:14;21.20;99.90
25991;DHT22;13779;-33.886;151.198;2022-12-26T18:45:44;21.10;99.90
25991;DHT22;13779;-33.886;151.198;2022-12-26T18:48:15;21.20;99.90
25991;DHT22;13779;-33.886;151.198;2022-12-26T18:50:46;21.20;99.90
25991;DHT22;13779;-33.886;151.198;2022-12-26T18:53:17;21.20;99.90
25991;DHT22;13779;-33.886;151.198;2022-12-26T18:55:47;21.20;99.90
25991;DHT22;13779;-33.886;151.198;2022-12-26T18:58:17;21.20;99.90
25991;DHT22;13779;-33.886;151.198;2022-12-26T19:00:48;21.20;99.90
25991;DHT22;13779;-33.886;151.198;2022-12-26T19:03:18;21.10;99.90
25991;DHT22;13779;-33.886;151.198;2022-12-26T19:05:49;21.10;99.90
25991;DHT22;13779;-33.886;151.198;2022-12-26T19:08:19;21.10;99.90
25991;DHT22;13779;-33.886;151.198;2022-12-26T19:10:50;21.10;99.90
25991;DHT22;13779;-33.886;151.198;2022-12-26T19:13:20;21.10;99.90
25991;DHT22;13779;-33.886;151.198;2022-12-26T19:15:51;21.10;99.90
25991;DHT22;13779;-33.886;151.198;2022-12-26T19:18:21;21.20;99.90
25991;DHT22;13779;-33.886;151.198;2022-12-26T19:20:52;21.20;99.90
25991;DHT22;13779;-33.886;151.198;2022-12-26T19:23:22;21.20;99.90
25991;DHT22;13779;-33.886;151.198;2022-12-26T19:25:53;21.20;99.90
25991;DHT22;13779;-33.886;151.198;2022-12-26T19:28:23;21.20;99.90
25991;DHT22;13779;-33.886;151.198;2022-12-26T19:30:54;21.20;99.90
25991;DHT22;13779;-33.886;151.198;2022-12-26T19:33:25;21.20;99.90
25991;DHT22;13779;-33.886;151.198;2022-12-26T19:35:55;21.20;99.90
25991;DHT22;13779;-33.886;151.198;2022-12-26T19:38:25;21.20;99.90